Time;durP1;ratioP1;P1;durP2;ratioP2;P2;SDS_P1;SDS_P2;PMS_P1;PMS_P2;Temp;Humidity;BMP_temperature;BMP_pressure;BME280_temperature;BME280_humidity;BME280_pressure;Samples;Min_cycle;Max_cycle;Signal;HPM_P1;HPM_P2
2023/03/05 00:01:36;;;;;;;;;;;4.50;89.60;;;;;;5094113;28;19951;-88
2023/03/05 00:04:03;;;;;;;;;;;4.40;90.00;;;;;;5121749;27;20483;-89
2023/03/05 00:06:30;;;;;;;;;;;4.50;90.10;;;;;;5135363;27;20035;-89
2023/03/05 00:08:57;;;;;;;;;;;4.60;89.90;;;;;;5135622;27;20061;-89
2023/03/05 00:11:24;;;;;;;;;;;4.60;89.70;;;;;;5134749;27;19971;-88
2023/03/05 00:13:53;;;;;;;;;;;4.60;88.60;;;;;;5135248;27;19951;-88
2023/03/05 00:16:19;;;;;;;;;;;4.60;87.90;;;;;;5135118;27;20045;-89
2023/03/05 00:18:45;;;;;;;;;;;4.70;86.90;;;;;;5135381;27;20374;-88
2023/03/05 00:21:24;;;;;;;;;;;4.70;85.90;;;;;;5134790;27;19949;-89
2023/03/05 00:23:50;;;;;;;;;;;4.60;86.80;;;;;;5135062;27;19935;-89
2023/03/05 00:26:19;;;;;;;;;;;4.50;87.00;;;;;;5134766;27;19947;-89
2023/03/05 00:28:51;;;;;;;;;;;4.40;87.50;;;;;;5134984;27;19981;-88
2023/03/05 00:31:18;;;;;;;;;;;4.40;88.80;;;;;;5134053;27;19940;-89
2023/03/05 00:33:44;;;;;;;;;;;4.50;90.40;;;;;;5134876;27;19943;-89
2023/03/05 00:36:10;;;;;;;;;;;4.50;90.20;;;;;;5134732;27;19963;-89
2023/03/05 00:38:35;;;;;;;;;;;4.60;90.10;;;;;;5134774;27;19945;-88
2023/03/05 00:41:01;;;;;;;;;;;4.40;87.40;;;;;;5134290;27;19944;-88
2023/03/05 00:43:26;;;;;;;;;;;4.40;87.90;;;;;;5134733;27;20037;-88
2023/03/05 00:45:52;;;;;;;;;;;4.40;88.20;;;;;;5134662;27;20353;-89
2023/03/05 00:48:18;;;;;;;;;;;4.40;88.40;;;;;;5134881;27;19939;-90
2023/03/05 00:50:43;;;;;;;;;;;4.50;88.60;;;;;;5134018;27;20332;-89
2023/03/05 00:53:09;;;;;;;;;;;4.50;88.70;;;;;;5134427;27;20375;-88
2023/03/05 00:55:35;;;;;;;;;;;4.50;88.50;;;;;;5134441;27;19960;-89
2023/03/05 00:58:01;;;;;;;;;;;4.50;88.30;;;;;;5134418;27;19937;-88
2023/03/05 01:00:26;;;;;;;;;;;4.50;88.20;;;;;;5133909;27;19945;-89
2023/03/05 01:02:52;;;;;;;;;;;4.40;87.90;;;;;;5133775;27;19972;-89
2023/03/05 01:05:17;;;;;;;;;;;4.30;86.90;;;;;;5134439;27;20087;-89
2023/03/05 01:07:43;;;;;;;;;;;4.20;86.70;;;;;;5134349;27;19940;-89
2023/03/05 01:10:09;;;;;;;;;;;4.00;85.20;;;;;;5133482;27;19935;-89
2023/03/05 01:12:35;;;;;;;;;;;4.00;85.20;;;;;;5134319;27;19940;-89
2023/03/05 01:15:01;;;;;;;;;;;4.10;85.50;;;;;;5134208;27;19935;-89
2023/03/05 01:17:26;;;;;;;;;;;4.10;85.90;;;;;;5133940;27;19955;-89
2023/03/05 01:19:52;;;;;;;;;;;4.10;86.00;;;;;;5134156;27;19936;-88
2023/03/05 01:22:17;;;;;;;;;;;4.00;85.30;;;;;;5134222;27;19941;-89
2023/03/05 01:24:43;;;;;;;;;;;4.00;84.80;;;;;;5134163;28;19983;-89
2023/03/05 01:27:08;;;;;;;;;;;4.00;84.90;;;;;;5134113;28;19942;-89
2023/03/05 01:29:36;;;;;;;;;;;4.00;84.90;;;;;;5134114;28;20343;-89
2023/03/05 01:32:02;;;;;;;;;;;4.00;85.40;;;;;;5133893;28;19947;-89
2023/03/05 01:34:27;;;;;;;;;;;4.00;86.80;;;;;;5134034;28;19936;-89
2023/03/05 01:36:53;;;;;;;;;;;4.00;88.60;;;;;;5133976;28;19960;-89
2023/03/05 01:39:18;;;;;;;;;;;4.00;88.50;;;;;;5133290;28;20424;-89
2023/03/05 01:41:44;;;;;;;;;;;4.00;89.40;;;;;;5133958;28;19946;-88
2023/03/05 01:44:27;;;;;;;;;;;4.00;88.70;;;;;;5133962;28;19968;-89
2023/03/05 01:46:52;;;;;;;;;;;4.00;87.10;;;;;;5134151;28;19941;-89
2023/03/05 01:49:18;;;;;;;;;;;4.00;87.40;;;;;;5133824;28;20049;-89
2023/03/05 01:52:02;;;;;;;;;;;4.10;87.40;;;;;;5115511;28;19943;-89
2023/03/05 01:54:32;;;;;;;;;;;4.10;87.70;;;;;;5133870;28;20420;-89
2023/03/05 01:56:59;;;;;;;;;;;4.10;87.80;;;;;;5133749;28;19960;-88
2023/03/05 01:59:25;;;;;;;;;;;4.00;87.90;;;;;;5133340;28;19945;-89
2023/03/05 02:01:53;;;;;;;;;;;4.00;88.00;;;;;;5133610;28;20306;-89
2023/03/05 02:04:20;;;;;;;;;;;4.10;88.60;;;;;;5133614;28;20139;-89
2023/03/05 02:06:46;;;;;;;;;;;4.00;88.60;;;;;;5133669;28;19937;-90
2023/03/05 02:09:12;;;;;;;;;;;3.90;88.20;;;;;;5133090;28;19951;-88
2023/03/05 02:11:38;;;;;;;;;;;3.70;85.90;;;;;;5133940;28;19940;-89
2023/03/05 02:14:04;;;;;;;;;;;3.50;84.90;;;;;;5133628;28;20466;-89
2023/03/05 02:16:34;;;;;;;;;;;3.50;85.40;;;;;;5133510;28;19959;-89
2023/03/05 02:19:03;;;;;;;;;;;3.50;83.90;;;;;;5132994;28;19988;-88
2023/03/05 02:21:40;;;;;;;;;;;3.40;83.90;;;;;;5134147;27;19934;-88
2023/03/05 02:24:08;;;;;;;;;;;3.20;83.20;;;;;;5137363;27;19936;-89
2023/03/05 02:26:34;;;;;;;;;;;3.00;83.30;;;;;;5137367;27;20052;-89
2023/03/05 02:29:00;;;;;;;;;;;2.90;85.00;;;;;;5136450;27;20466;-89
2023/03/05 02:31:26;;;;;;;;;;;3.00;85.60;;;;;;5137291;27;19942;-89
2023/03/05 02:33:52;;;;;;;;;;;3.00;85.90;;;;;;5137178;27;19936;-88
2023/03/05 02:36:18;;;;;;;;;;;3.10;87.30;;;;;;5118661;27;20054;-89
2023/03/05 02:38:44;;;;;;;;;;;3.20;87.90;;;;;;5136914;27;20391;-89
2023/03/05 02:41:10;;;;;;;;;;;3.20;88.00;;;;;;5137335;27;19996;-89
2023/03/05 02:43:35;;;;;;;;;;;3.30;89.50;;;;;;5136975;27;20027;-88
2023/03/05 02:46:01;;;;;;;;;;;3.40;89.70;;;;;;5136934;27;19941;-89
2023/03/05 02:48:26;;;;;;;;;;;3.20;88.90;;;;;;5136455;27;19955;-89
2023/03/05 02:50:52;;;;;;;;;;;3.20;87.30;;;;;;5136495;27;19953;-89
2023/03/05 02:53:18;;;;;;;;;;;3.20;86.80;;;;;;5136773;27;19963;-88
2023/03/05 02:55:47;;;;;;;;;;;3.20;86.30;;;;;;5136619;27;20351;-88
2023/03/05 02:58:13;;;;;;;;;;;3.20;87.60;;;;;;5136014;27;19945;-89
2023/03/05 03:00:38;;;;;;;;;;;3.20;88.00;;;;;;5136310;27;20333;-88
2023/03/05 03:03:04;;;;;;;;;;;3.00;87.70;;;;;;5136664;27;20396;-89
2023/03/05 03:05:29;;;;;;;;;;;2.90;88.20;;;;;;5136629;27;20032;-89
2023/03/05 03:07:55;;;;;;;;;;;2.90;88.70;;;;;;5135203;27;19945;-89
2023/03/05 03:10:20;;;;;;;;;;;2.80;88.60;;;;;;5136526;27;19960;-89
2023/03/05 03:12:46;;;;;;;;;;;2.80;88.50;;;;;;5136478;27;19947;-89
2023/03/05 03:15:13;;;;;;;;;;;2.70;88.40;;;;;;5136382;27;19935;-88
2023/03/05 03:17:38;;;;;;;;;;;2.70;88.70;;;;;;5135941;27;19948;-89
2023/03/05 03:20:07;;;;;;;;;;;2.80;88.70;;;;;;5136593;27;20348;-89
2023/03/05 03:22:33;;;;;;;;;;;2.90;87.30;;;;;;5136004;27;19942;-89
2023/03/05 03:24:59;;;;;;;;;;;3.00;86.80;;;;;;5117864;27;19943;-89
2023/03/05 03:27:24;;;;;;;;;;;3.00;87.40;;;;;;5135558;27;19974;-89
2023/03/05 03:29:50;;;;;;;;;;;3.00;87.20;;;;;;5136157;27;19940;-88
2023/03/05 03:32:15;;;;;;;;;;;2.90;86.90;;;;;;5136643;27;19966;-89
2023/03/05 03:34:41;;;;;;;;;;;2.90;87.20;;;;;;5135473;27;20386;-89
2023/03/05 03:37:07;;;;;;;;;;;2.90;87.70;;;;;;5135624;27;19980;-89
2023/03/05 03:39:32;;;;;;;;;;;3.00;87.60;;;;;;5135879;27;20572;-88
2023/03/05 03:41:58;;;;;;;;;;;3.00;87.70;;;;;;5135937;27;20105;-89
2023/03/05 03:44:23;;;;;;;;;;;3.00;87.80;;;;;;5135845;27;19981;-88
2023/03/05 03:46:50;;;;;;;;;;;3.00;88.20;;;;;;5135283;27;19951;-88
2023/03/05 03:49:20;;;;;;;;;;;2.90;87.80;;;;;;5135767;27;20015;-89
2023/03/05 03:51:46;;;;;;;;;;;2.80;86.30;;;;;;5135675;27;20482;-88
2023/03/05 03:54:12;;;;;;;;;;;2.80;86.10;;;;;;5135611;27;19952;-89
2023/03/05 03:56:38;;;;;;;;;;;2.90;86.70;;;;;;5135230;27;19958;-88
2023/03/05 03:59:03;;;;;;;;;;;3.00;87.80;;;;;;5134927;27;19998;-89
2023/03/05 04:01:29;;;;;;;;;;;3.00;88.10;;;;;;5135194;27;19948;-89
2023/03/05 04:03:54;;;;;;;;;;;2.90;87.70;;;;;;5116861;27;20080;-89
2023/03/05 04:06:20;;;;;;;;;;;2.90;87.90;;;;;;5135465;27;19979;-88
2023/03/05 04:08:45;;;;;;;;;;;2.90;88.20;;;;;;5134700;27;19953;-89
2023/03/05 04:11:11;;;;;;;;;;;2.90;88.40;;;;;;5135326;27;19943;-88
2023/03/05 04:13:36;;;;;;;;;;;2.90;88.40;;;;;;5135298;27;19940;-89
2023/03/05 04:16:02;;;;;;;;;;;2.90;88.20;;;;;;5135159;27;20340;-89
2023/03/05 04:18:28;;;;;;;;;;;2.80;88.00;;;;;;5135067;27;19968;-89
2023/03/05 04:20:53;;;;;;;;;;;2.80;88.20;;;;;;5135184;27;19936;-89
2023/03/05 04:23:19;;;;;;;;;;;2.70;88.20;;;;;;5116664;27;20314;-89
2023/03/05 04:25:44;;;;;;;;;;;2.70;88.40;;;;;;5135022;27;19947;-88
2023/03/05 04:28:10;;;;;;;;;;;2.60;88.80;;;;;;5134386;27;19989;-88
2023/03/05 04:30:36;;;;;;;;;;;2.60;88.80;;;;;;5134960;27;19944;-89
2023/03/05 04:33:01;;;;;;;;;;;2.60;89.40;;;;;;5134884;27;19943;-89
2023/03/05 04:35:27;;;;;;;;;;;2.50;89.30;;;;;;5134760;27;19961;-89
2023/03/05 04:37:52;;;;;;;;;;;2.50;90.10;;;;;;5134610;27;19955;-88
2023/03/05 04:40:18;;;;;;;;;;;2.50;88.20;;;;;;5134778;27;19936;-89
2023/03/05 04:42:44;;;;;;;;;;;2.50;88.10;;;;;;5134757;27;20046;-89
2023/03/05 04:45:09;;;;;;;;;;;2.50;88.60;;;;;;5133221;27;19943;-88
2023/03/05 04:47:35;;;;;;;;;;;2.60;89.10;;;;;;5134909;27;19999;-88
2023/03/05 04:50:02;;;;;;;;;;;2.70;88.20;;;;;;5134654;27;19937;-89
2023/03/05 04:52:28;;;;;;;;;;;2.60;87.90;;;;;;5134817;27;20059;-89
2023/03/05 04:54:53;;;;;;;;;;;2.40;87.50;;;;;;5134497;27;19994;-89
2023/03/05 04:57:19;;;;;;;;;;;2.20;86.70;;;;;;5133496;27;20441;-89
2023/03/05 04:59:44;;;;;;;;;;;2.20;87.10;;;;;;5134459;27;20453;-88
2023/03/05 05:02:10;;;;;;;;;;;2.20;86.30;;;;;;5134353;27;19935;-89
2023/03/05 05:04:36;;;;;;;;;;;2.30;85.90;;;;;;5134195;27;19980;-89
2023/03/05 05:07:02;;;;;;;;;;;2.40;86.10;;;;;;5133921;27;20040;-89
2023/03/05 05:09:27;;;;;;;;;;;2.40;86.00;;;;;;5134382;27;19973;-89
2023/03/05 05:11:53;;;;;;;;;;;2.20;86.30;;;;;;5134362;27;19994;-89
2023/03/05 05:14:18;;;;;;;;;;;2.20;87.50;;;;;;5134154;27;19979;-88
2023/03/05 05:16:44;;;;;;;;;;;2.30;88.20;;;;;;5133269;27;19963;-88
2023/03/05 05:19:10;;;;;;;;;;;2.40;88.80;;;;;;5134176;27;19940;-89
2023/03/05 05:21:35;;;;;;;;;;;2.40;88.80;;;;;;5134157;27;19943;-89
2023/03/05 05:24:01;;;;;;;;;;;2.40;89.50;;;;;;5134152;27;19937;-89
2023/03/05 05:26:26;;;;;;;;;;;2.50;90.30;;;;;;5133926;27;19938;-89
2023/03/05 05:28:52;;;;;;;;;;;2.60;89.60;;;;;;5134088;28;19949;-89
2023/03/05 05:31:18;;;;;;;;;;;2.50;89.30;;;;;;5134063;28;20046;-89
2023/03/05 05:33:44;;;;;;;;;;;2.50;89.00;;;;;;5134015;28;19940;-88
2023/03/05 05:36:10;;;;;;;;;;;2.50;88.80;;;;;;5132985;28;20012;-88
2023/03/05 05:38:36;;;;;;;;;;;2.40;88.30;;;;;;5133945;28;19941;-88
2023/03/05 05:41:06;;;;;;;;;;;2.20;88.50;;;;;;5115595;28;19948;-89
2023/03/05 05:43:32;;;;;;;;;;;2.20;88.70;;;;;;5133914;28;19946;-89
2023/03/05 05:46:02;;;;;;;;;;;2.10;89.10;;;;;;5133750;28;19942;-88
2023/03/05 05:48:28;;;;;;;;;;;2.20;89.30;;;;;;5129664;28;19991;-89
2023/03/05 05:50:54;;;;;;;;;;;2.20;89.60;;;;;;5113384;28;19939;-88
2023/03/05 05:53:20;;;;;;;;;;;2.20;90.10;;;;;;5113230;28;20444;-88
2023/03/05 05:55:45;;;;;;;;;;;2.20;89.70;;;;;;5118074;28;19993;-89
2023/03/05 05:58:11;;;;;;;;;;;2.20;89.40;;;;;;5137648;27;19936;-88
2023/03/05 06:00:37;;;;;;;;;;;2.20;89.30;;;;;;5137760;27;19934;-89
2023/03/05 06:03:03;;;;;;;;;;;2.20;88.90;;;;;;5137667;27;19969;-88
2023/03/05 06:05:28;;;;;;;;;;;2.20;89.00;;;;;;5137326;27;20053;-88
2023/03/05 06:07:54;;;;;;;;;;;2.20;89.30;;;;;;5137780;27;19934;-89
2023/03/05 06:10:19;;;;;;;;;;;2.20;89.60;;;;;;5137647;27;19984;-88
2023/03/05 06:12:45;;;;;;;;;;;2.20;89.70;;;;;;5137884;27;19939;-88
2023/03/05 06:15:11;;;;;;;;;;;2.20;89.80;;;;;;5137476;27;19940;-88
2023/03/05 06:17:36;;;;;;;;;;;2.30;90.40;;;;;;5115117;28;19991;-88
2023/03/05 06:20:03;;;;;;;;;;;2.50;91.20;;;;;;5116974;28;19961;-89
2023/03/05 06:22:28;;;;;;;;;;;2.50;90.90;;;;;;5116960;28;19937;-89
2023/03/05 06:24:54;;;;;;;;;;;2.40;89.90;;;;;;5116910;28;19956;-88
2023/03/05 06:27:20;;;;;;;;;;;2.50;90.00;;;;;;5134122;27;19966;-89
2023/03/05 06:29:45;;;;;;;;;;;2.50;90.10;;;;;;5137334;27;19952;-89
2023/03/05 06:32:11;;;;;;;;;;;2.50;90.20;;;;;;5137349;27;19941;-89
2023/03/05 06:34:36;;;;;;;;;;;2.60;90.30;;;;;;5137310;27;20303;-89
2023/03/05 06:37:02;;;;;;;;;;;2.60;90.40;;;;;;5136853;27;19945;-88
2023/03/05 06:39:29;;;;;;;;;;;2.60;90.40;;;;;;5137149;27;19940;-89
2023/03/05 06:41:54;;;;;;;;;;;2.60;90.30;;;;;;5137426;27;19945;-89
2023/03/05 06:44:20;;;;;;;;;;;2.50;90.10;;;;;;5137357;27;20348;-88
2023/03/05 06:46:45;;;;;;;;;;;2.50;89.10;;;;;;5136463;27;20049;-89
2023/03/05 06:49:11;;;;;;;;;;;2.70;88.60;;;;;;5136983;27;19932;-89
2023/03/05 06:51:37;;;;;;;;;;;2.80;88.00;;;;;;5136952;27;20400;-89
2023/03/05 06:54:13;;;;;;;;;;;2.70;87.90;;;;;;5136740;27;19954;-88
2023/03/05 06:56:40;;;;;;;;;;;2.60;87.90;;;;;;5136698;27;19953;-89
2023/03/05 06:59:06;;;;;;;;;;;2.50;88.20;;;;;;5136760;27;19987;-89
2023/03/05 07:01:31;;;;;;;;;;;2.40;88.50;;;;;;5136624;27;19937;-89
2023/03/05 07:03:59;;;;;;;;;;;2.40;89.00;;;;;;5135038;22;20062;-89
2023/03/05 07:06:26;;;;;;;;;;;2.50;90.40;;;;;;5136392;27;19941;-88
2023/03/05 07:08:53;;;;;;;;;;;2.70;90.70;;;;;;5135580;27;19968;-89
2023/03/05 07:11:19;;;;;;;;;;;2.90;91.00;;;;;;5136557;27;20450;-89
2023/03/05 07:13:46;;;;;;;;;;;3.00;91.20;;;;;;5136142;27;20028;-88
2023/03/05 07:16:16;;;;;;;;;;;3.20;91.80;;;;;;5130998;27;19966;-89
2023/03/05 07:18:41;;;;;;;;;;;3.40;91.70;;;;;;5136411;27;19963;-88
2023/03/05 07:21:07;;;;;;;;;;;3.50;91.70;;;;;;5124144;27;19938;-89
2023/03/05 07:23:33;;;;;;;;;;;3.60;91.40;;;;;;5115816;28;19942;-89
2023/03/05 07:26:03;;;;;;;;;;;3.80;91.40;;;;;;5115984;28;19947;-89
2023/03/05 07:28:28;;;;;;;;;;;3.90;91.40;;;;;;5115662;28;20026;-89
2023/03/05 07:30:58;;;;;;;;;;;3.90;91.40;;;;;;5119953;27;20030;-89
2023/03/05 07:33:24;;;;;;;;;;;4.10;91.30;;;;;;5127411;27;19942;-88
2023/03/05 07:35:49;;;;;;;;;;;4.20;91.10;;;;;;5115427;27;19977;-89
2023/03/05 07:38:15;;;;;;;;;;;4.30;91.30;;;;;;5115484;28;19944;-89
2023/03/05 07:40:40;;;;;;;;;;;4.40;91.60;;;;;;5121553;27;20422;-90
2023/03/05 07:43:06;;;;;;;;;;;4.60;91.80;;;;;;5135357;27;19987;-90
2023/03/05 07:45:31;;;;;;;;;;;4.70;91.40;;;;;;5135899;27;20306;-89
2023/03/05 07:47:57;;;;;;;;;;;4.90;91.00;;;;;;5135794;27;19943;-89
2023/03/05 07:50:22;;;;;;;;;;;5.10;91.00;;;;;;5131646;27;20276;-89
2023/03/05 07:52:48;;;;;;;;;;;5.30;89.80;;;;;;5115150;28;19967;-89
2023/03/05 07:55:14;;;;;;;;;;;5.40;89.80;;;;;;5115111;28;19976;-89
2023/03/05 07:57:39;;;;;;;;;;;5.50;89.50;;;;;;5115076;28;20280;-89
2023/03/05 08:00:05;;;;;;;;;;;5.70;88.60;;;;;;5116361;27;20018;-89
2023/03/05 08:02:31;;;;;;;;;;;5.90;87.80;;;;;;5135250;27;19951;-88
2023/03/05 08:04:56;;;;;;;;;;;6.20;86.50;;;;;;5135515;27;20378;-89
2023/03/05 08:07:22;;;;;;;;;;;6.40;85.30;;;;;;5135454;27;19949;-89
2023/03/05 08:09:47;;;;;;;;;;;6.60;84.70;;;;;;5135411;27;20024;-89
2023/03/05 08:12:13;;;;;;;;;;;6.60;84.60;;;;;;5134943;27;19995;-90
2023/03/05 08:14:38;;;;;;;;;;;6.70;84.50;;;;;;5135303;27;20081;-89
2023/03/05 08:17:04;;;;;;;;;;;6.80;84.30;;;;;;5135137;27;20467;-89
2023/03/05 08:19:30;;;;;;;;;;;6.90;84.20;;;;;;5135064;27;19940;-89
2023/03/05 08:21:55;;;;;;;;;;;7.00;84.30;;;;;;5134820;27;19955;-89
2023/03/05 08:24:28;;;;;;;;;;;7.10;83.70;;;;;;5135120;27;19936;-89
2023/03/05 08:26:54;;;;;;;;;;;7.20;83.20;;;;;;5135297;27;19966;-89
2023/03/05 08:29:19;;;;;;;;;;;7.30;82.90;;;;;;5135010;27;20330;-89
2023/03/05 08:31:46;;;;;;;;;;;7.40;82.20;;;;;;5134546;27;19947;-88
2023/03/05 08:34:11;;;;;;;;;;;7.60;82.20;;;;;;5134822;27;20351;-89
2023/03/05 08:36:37;;;;;;;;;;;7.70;82.10;;;;;;5134814;27;19958;-90
2023/03/05 08:39:05;;;;;;;;;;;7.80;81.70;;;;;;5134900;27;19938;-89
2023/03/05 08:41:31;;;;;;;;;;;7.80;80.60;;;;;;5134535;27;20092;-89
2023/03/05 08:43:57;;;;;;;;;;;7.90;80.40;;;;;;5134717;27;20404;-90
2023/03/05 08:46:22;;;;;;;;;;;8.00;80.10;;;;;;5134768;27;19961;-90
2023/03/05 08:48:48;;;;;;;;;;;8.20;79.80;;;;;;5134928;27;20035;-90
2023/03/05 08:51:14;;;;;;;;;;;8.30;79.20;;;;;;5134587;27;19942;-90
2023/03/05 08:53:41;;;;;;;;;;;8.40;77.80;;;;;;5134570;27;20344;-89
2023/03/05 08:56:06;;;;;;;;;;;8.50;77.30;;;;;;5134502;27;19959;-89
2023/03/05 08:58:32;;;;;;;;;;;8.50;76.60;;;;;;5134577;27;20358;-89
2023/03/05 09:00:58;;;;;;;;;;;8.60;75.50;;;;;;5134036;27;19955;-90
2023/03/05 09:03:23;;;;;;;;;;;8.80;73.70;;;;;;5115821;27;20018;-89
2023/03/05 09:05:50;;;;;;;;;;;8.90;71.40;;;;;;5134402;27;20453;-89
2023/03/05 09:08:16;;;;;;;;;;;9.00;69.50;;;;;;5134299;27;19974;-89
2023/03/05 09:10:42;;;;;;;;;;;9.10;68.60;;;;;;5133779;27;20034;-89
2023/03/05 09:13:08;;;;;;;;;;;9.30;67.60;;;;;;5134229;27;20300;-89
2023/03/05 09:15:33;;;;;;;;;;;9.50;67.40;;;;;;5134521;27;19961;-89
2023/03/05 09:17:59;;;;;;;;;;;9.70;67.10;;;;;;5134252;27;19937;-89
2023/03/05 09:20:25;;;;;;;;;;;9.80;68.20;;;;;;5133766;27;19951;-89
2023/03/05 09:22:50;;;;;;;;;;;9.90;68.40;;;;;;5134382;27;19942;-89
2023/03/05 09:25:16;;;;;;;;;;;10.00;67.70;;;;;;5134174;27;20396;-89
2023/03/05 09:27:42;;;;;;;;;;;10.10;66.90;;;;;;5134431;27;20299;-89
2023/03/05 09:30:08;;;;;;;;;;;10.30;66.70;;;;;;5133775;28;19955;-90
2023/03/05 09:32:34;;;;;;;;;;;10.40;65.50;;;;;;5133768;27;19943;-89
2023/03/05 09:34:59;;;;;;;;;;;10.50;65.20;;;;;;5134055;28;20018;-89
2023/03/05 09:37:25;;;;;;;;;;;10.60;65.90;;;;;;5133912;28;20053;-89
2023/03/05 09:39:50;;;;;;;;;;;10.60;66.30;;;;;;5133724;28;19954;-89
2023/03/05 09:42:23;;;;;;;;;;;10.70;66.30;;;;;;5133818;28;19938;-89
2023/03/05 09:45:07;;;;;;;;;;;10.70;66.40;;;;;;5134021;28;19938;-89
2023/03/05 09:47:51;;;;;;;;;;;10.80;65.40;;;;;;5133909;28;19938;-90
2023/03/05 09:50:17;;;;;;;;;;;10.90;64.00;;;;;;5133406;28;19986;-90
2023/03/05 09:52:42;;;;;;;;;;;11.00;64.30;;;;;;5133775;28;19954;-89
2023/03/05 09:55:11;;;;;;;;;;;11.10;63.80;;;;;;5133867;28;19939;-89
2023/03/05 09:57:42;;;;;;;;;;;11.20;62.90;;;;;;5133771;28;20424;-89
2023/03/05 10:00:25;;;;;;;;;;;11.30;62.30;;;;;;5133425;28;19953;-89
2023/03/05 10:02:54;;;;;;;;;;;11.40;61.20;;;;;;5115155;28;19975;-89
2023/03/05 10:05:24;;;;;;;;;;;11.40;61.50;;;;;;5133790;28;19970;-88
2023/03/05 10:07:54;;;;;;;;;;;11.50;61.10;;;;;;5133279;28;20415;-89
2023/03/05 10:10:23;;;;;;;;;;;11.40;61.80;;;;;;5133654;28;19951;-89
2023/03/05 10:12:55;;;;;;;;;;;11.40;62.30;;;;;;5133942;28;19945;-89
2023/03/05 10:15:20;;;;;;;;;;;11.60;62.40;;;;;;5133611;28;19940;-90
2023/03/05 10:17:46;;;;;;;;;;;11.80;62.10;;;;;;5133615;28;20003;-89
2023/03/05 10:20:23;;;;;;;;;;;11.80;60.60;;;;;;5132902;28;19952;-89
2023/03/05 10:23:07;;;;;;;;;;;11.90;61.10;;;;;;5133474;28;19942;-89
2023/03/05 10:25:57;;;;;;;;;;;12.10;63.90;;;;;;5133628;28;19936;-89
2023/03/05 10:28:41;;;;;;;;;;;12.40;63.70;;;;;;5115135;28;20037;-89
2023/03/05 10:31:45;;;;;;;;;;;12.50;63.40;;;;;;5133438;28;20392;-89
2023/03/05 10:34:10;;;;;;;;;;;12.60;61.80;;;;;;5050032;28;19972;-89
2023/03/05 10:36:44;;;;;;;;;;;12.80;59.90;;;;;;5050063;28;19964;-89
2023/03/05 10:39:21;;;;;;;;;;;12.80;61.60;;;;;;5092845;28;19937;-89
2023/03/05 10:42:01;;;;;;;;;;;12.90;61.30;;;;;;5133447;28;19937;-89
2023/03/05 10:44:26;;;;;;;;;;;13.10;61.40;;;;;;5135686;27;19948;-89
2023/03/05 10:46:55;;;;;;;;;;;13.20;60.00;;;;;;5137075;27;19934;-89
2023/03/05 10:49:27;;;;;;;;;;;13.30;58.50;;;;;;5136775;27;19982;-89
2023/03/05 10:51:56;;;;;;;;;;;13.40;58.50;;;;;;5136987;27;19941;-90
2023/03/05 10:54:24;;;;;;;;;;;13.50;56.50;;;;;;5136913;27;19941;-89
2023/03/05 10:56:49;;;;;;;;;;;13.50;56.10;;;;;;5118428;27;19962;-90
2023/03/05 10:59:15;;;;;;;;;;;13.60;56.60;;;;;;5136527;27;20016;-90
2023/03/05 11:01:40;;;;;;;;;;;13.60;56.30;;;;;;5136274;27;20383;-89
2023/03/05 11:04:23;;;;;;;;;;;13.60;55.80;;;;;;5136391;27;19977;-89
2023/03/05 11:06:49;;;;;;;;;;;13.70;56.00;;;;;;5136672;27;20359;-89
2023/03/05 11:09:27;;;;;;;;;;;13.70;56.60;;;;;;5117893;27;19982;-89
2023/03/05 11:12:12;;;;;;;;;;;13.60;56.70;;;;;;5133461;27;20043;-90
2023/03/05 11:14:40;;;;;;;;;;;13.90;57.80;;;;;;5136293;27;20320;-89
2023/03/05 11:17:23;;;;;;;;;;;14.10;57.10;;;;;;5136390;27;19965;-89
2023/03/05 11:19:49;;;;;;;;;;;14.30;55.10;;;;;;5117667;27;19980;-89
2023/03/05 11:22:19;;;;;;;;;;;14.40;55.80;;;;;;5136234;27;19989;-89
2023/03/05 11:25:03;;;;;;;;;;;14.60;55.50;;;;;;5136372;27;19940;-89
2023/03/05 11:27:32;;;;;;;;;;;14.80;56.20;;;;;;5136473;27;20007;-89
2023/03/05 11:29:57;;;;;;;;;;;14.90;55.50;;;;;;5135957;27;19953;-89
2023/03/05 11:32:25;;;;;;;;;;;15.00;56.10;;;;;;5136139;27;19944;-89
2023/03/05 11:34:51;;;;;;;;;;;15.10;53.90;;;;;;5135651;27;19949;-89
2023/03/05 11:37:29;;;;;;;;;;;15.30;52.60;;;;;;5135977;27;19958;-89
2023/03/05 11:40:14;;;;;;;;;;;15.30;53.60;;;;;;5135735;27;20392;-89
2023/03/05 11:42:40;;;;;;;;;;;15.30;51.60;;;;;;5135937;27;19945;-89
2023/03/05 11:45:13;;;;;;;;;;;15.30;53.40;;;;;;5135925;27;19942;-89
2023/03/05 11:47:43;;;;;;;;;;;15.40;53.20;;;;;;5135866;27;19941;-89
2023/03/05 11:50:14;;;;;;;;;;;15.80;53.00;;;;;;5135643;27;19944;-89
2023/03/05 11:52:58;;;;;;;;;;;16.00;50.30;;;;;;5135724;27;20487;-89
2023/03/05 11:55:28;;;;;;;;;;;15.80;50.10;;;;;;5135138;27;19934;-89
2023/03/05 11:58:00;;;;;;;;;;;16.00;50.30;;;;;;5135963;27;19946;-89
2023/03/05 12:00:28;;;;;;;;;;;16.10;51.90;;;;;;5135156;27;19955;-89
2023/03/05 12:02:55;;;;;;;;;;;16.00;50.50;;;;;;5135373;27;19977;-89
2023/03/05 12:05:21;;;;;;;;;;;15.90;51.10;;;;;;5135390;27;19961;-89
2023/03/05 12:07:48;;;;;;;;;;;15.90;53.20;;;;;;5135772;27;20318;-89
2023/03/05 12:10:18;;;;;;;;;;;16.10;52.80;;;;;;5135187;27;19990;-89
2023/03/05 12:12:48;;;;;;;;;;;16.20;51.80;;;;;;5135384;27;19936;-89
2023/03/05 12:15:21;;;;;;;;;;;16.40;50.70;;;;;;5135328;27;19939;-89
2023/03/05 12:17:58;;;;;;;;;;;16.40;49.10;;;;;;5135557;27;19994;-90
2023/03/05 12:20:30;;;;;;;;;;;16.70;51.20;;;;;;5131355;27;19939;-89
2023/03/05 12:22:56;;;;;;;;;;;16.80;49.70;;;;;;5116080;27;19961;-90
2023/03/05 12:25:24;;;;;;;;;;;17.10;47.80;;;;;;5134795;27;19950;-89
2023/03/05 12:27:50;;;;;;;;;;;17.40;47.60;;;;;;5135307;27;19947;-90
2023/03/05 12:30:34;;;;;;;;;;;18.10;46.00;;;;;;5116164;27;20035;-90
2023/03/05 12:33:03;;;;;;;;;;;19.30;43.40;;;;;;5134972;27;19964;-90
2023/03/05 12:35:35;;;;;;;;;;;20.30;40.80;;;;;;5116341;27;19942;-90
2023/03/05 12:38:01;;;;;;;;;;;21.00;39.90;;;;;;5135121;27;19938;-90
2023/03/05 12:40:27;;;;;;;;;;;21.50;40.10;;;;;;5134458;27;20029;-90
2023/03/05 12:42:56;;;;;;;;;;;21.90;39.10;;;;;;5134575;27;19954;-89
2023/03/05 12:45:22;;;;;;;;;;;22.30;37.70;;;;;;5134499;27;19984;-89
2023/03/05 12:47:54;;;;;;;;;;;21.80;38.30;;;;;;5134765;27;19950;-88
2023/03/05 12:50:25;;;;;;;;;;;19.80;41.10;;;;;;5134202;27;19943;-89
2023/03/05 12:53:10;;;;;;;;;;;19.10;41.90;;;;;;5134519;27;19957;-89
2023/03/05 12:55:49;;;;;;;;;;;19.40;41.00;;;;;;5134549;27;20411;-89
2023/03/05 12:58:32;;;;;;;;;;;20.80;37.60;;;;;;5116207;27;19990;-89
2023/03/05 13:01:10;;;;;;;;;;;21.60;36.20;;;;;;5118754;27;19984;-89
2023/03/05 13:03:39;;;;;;;;;;;21.80;36.20;;;;;;5115843;27;20339;-89
2023/03/05 13:06:06;;;;;;;;;;;21.70;36.50;;;;;;5133736;27;19944;-89
2023/03/05 13:08:34;;;;;;;;;;;21.90;36.90;;;;;;5134418;27;19971;-90
2023/03/05 13:11:02;;;;;;;;;;;22.20;36.60;;;;;;5134360;27;19986;-89
2023/03/05 13:13:29;;;;;;;;;;;22.40;36.90;;;;;;5134355;27;19982;-89
2023/03/05 13:15:55;;;;;;;;;;;21.70;38.00;;;;;;5134279;27;19960;-89
2023/03/05 13:18:25;;;;;;;;;;;21.10;38.20;;;;;;5134298;27;20371;-89
2023/03/05 13:21:05;;;;;;;;;;;20.90;40.80;;;;;;5133955;27;20382;-89
2023/03/05 13:23:31;;;;;;;;;;;21.00;39.00;;;;;;5134168;27;19945;-89
2023/03/05 13:26:01;;;;;;;;;;;21.30;40.00;;;;;;5134136;27;20305;-89
2023/03/05 13:28:27;;;;;;;;;;;22.30;36.50;;;;;;5134138;27;20283;-89
2023/03/05 13:30:57;;;;;;;;;;;22.80;35.80;;;;;;5133634;28;20001;-89
2023/03/05 13:33:25;;;;;;;;;;;22.70;36.50;;;;;;5133993;28;19991;-89
2023/03/05 13:35:51;;;;;;;;;;;22.60;35.90;;;;;;5133922;28;20301;-89
2023/03/05 13:38:32;;;;;;;;;;;21.80;37.90;;;;;;5134032;28;19989;-90
2023/03/05 13:41:20;;;;;;;;;;;21.80;36.90;;;;;;5133512;28;19945;-89
2023/03/05 13:43:46;;;;;;;;;;;21.70;36.70;;;;;;5122822;28;19946;-89
2023/03/05 13:46:12;;;;;;;;;;;21.60;34.70;;;;;;5134011;28;19936;-89
2023/03/05 13:48:37;;;;;;;;;;;21.90;35.40;;;;;;5133763;28;20023;-90
2023/03/05 13:51:07;;;;;;;;;;;22.80;34.60;;;;;;5133775;28;20423;-90
2023/03/05 13:53:33;;;;;;;;;;;23.70;32.50;;;;;;5115341;28;19961;-89
2023/03/05 13:55:59;;;;;;;;;;;23.40;33.40;;;;;;5133803;28;19959;-89
2023/03/05 13:58:46;;;;;;;;;;;21.70;34.90;;;;;;5133860;28;19949;-89
2023/03/05 14:01:20;;;;;;;;;;;21.30;36.50;;;;;;5130686;28;19945;-89
2023/03/05 14:03:48;;;;;;;;;;;21.30;36.20;;;;;;5133678;28;20063;-90
2023/03/05 14:06:17;;;;;;;;;;;21.30;35.60;;;;;;5134038;28;19947;-90
2023/03/05 14:08:47;;;;;;;;;;;21.60;35.70;;;;;;5133844;28;19962;-89
2023/03/05 14:11:15;;;;;;;;;;;21.80;34.10;;;;;;5133619;28;19959;-90
2023/03/05 14:13:41;;;;;;;;;;;22.70;34.40;;;;;;5133731;28;19965;-89
2023/03/05 14:16:11;;;;;;;;;;;22.10;34.00;;;;;;5133633;28;20052;-89
2023/03/05 14:18:38;;;;;;;;;;;22.10;33.90;;;;;;5136082;27;19993;-90
2023/03/05 14:21:07;;;;;;;;;;;22.60;32.90;;;;;;5137272;27;19947;-89
2023/03/05 14:23:33;;;;;;;;;;;22.80;33.40;;;;;;5119063;27;20385;-89
2023/03/05 14:26:10;;;;;;;;;;;23.10;33.10;;;;;;5137495;27;20000;-89
2023/03/05 14:28:36;;;;;;;;;;;22.80;34.40;;;;;;5137465;27;19938;-89
2023/03/05 14:31:02;;;;;;;;;;;23.00;34.40;;;;;;5137111;27;20023;-89